Terminal Aerodrome Forecast
Issued by NWS

Home | Current Version | Previous Version | Graphics & Text | Print | Product List | Glossary On
Versions: 1 2 3 4 5 6 7 8 9 10 11 12 13 14 15 16 17 18
000
FTUS43 KABR 220531
TAFMBG
TAF
KMBG 220531Z 2206/2306 06009KT P6SM VCTS BKN100CB
      TEMPO 2206/2208 VRB20G40KT P6SM -TSRA OVC050CB
     FM221000 12006KT P6SM VCTS BKN100CB
     FM221200 26008KT P6SM BKN110
     FM221600 32015G24KT P6SM SCT200
     FM230100 32008KT P6SM SCT250=

USA.gov is the U.S. government's official web portal to all federal, state and local government web resources and services.